Latest Weather Observations for Sydney Harbour

IDN60901

Issued at 1:55 am EST Friday 22 August 2014 (issued every 10 minutes, with the page automatically refreshed every 10 minutes)

About weather observations | Map of Sydney area stations | Latest observations for Sydney area | Other Formats
Station Details ID: 066196 Name: WEDDING CAKE WEST Lat: -33.84 Lon: 151.26 Height: 6.0 m
Data from the previous 72 hours. | See also: Recent months for locations in New South Wales
Date/Time
EST
Tmp

°C
App
Tmp
°C
Dew
Point
°C
Rel
Hum
%
Delta-T

°C
Wind Press
QNH
hPa
Press
MSL
hPa
Rain
since
9 am
mm
Dir
 
Spd
km/h
Gust
km/h
Spd
kts
Gust
kts
22/01:30am 13.4 - - - - W 17 22 9 12 - - -
22/01:00am 14.6 - - - - ESE 17 24 9 13 - - -
22/12:30am 14.9 - - - - SSE 13 17 7 9 - - -
22/12:00am 14.2 - - - - SSE 15 20 8 11 - - -
 
Date/Time
EST
Tmp

°C
App
Tmp
°C
Dew
Point
°C
Rel
Hum
%
Delta-T

°C
Wind Press
QNH
hPa
Press
MSL
hPa
Rain
since
9 am
mm
Dir
 
Spd
km/h
Gust
km/h
Spd
kts
Gust
kts
21/11:30pm 13.5 - - - - E 19 24 10 13 - - -
21/11:10pm 13.9 - - - - E 35 41 19 22 - - -
21/11:00pm 14.5 - - - - ESE 15 22 8 12 - - -
21/10:30pm 14.3 - - - - E 20 30 11 16 - - -
21/10:00pm 14.9 - - - - E 26 33 14 18 - - -
21/09:30pm 16.0 - - - - SSE 26 33 14 18 - - -
21/09:00pm 15.9 - - - - SE 26 33 14 18 - - -
21/08:30pm 15.8 - - - - SE 26 35 14 19 - - -
21/08:00pm 14.9 - - - - SSE 28 39 15 21 - - -
21/07:30pm 15.6 - - - - SSE 19 28 10 15 - - -
21/07:00pm 15.5 - - - - SSE 22 30 12 16 - - -
21/06:30pm 15.2 - - - - SSE 24 32 13 17 - - -
21/06:00pm 15.3 - - - - SSE 20 28 11 15 - - -
21/05:30pm 15.2 - - - - SE 20 28 11 15 - - -
21/05:00pm 14.9 - - - - SE 26 33 14 18 - - -
21/04:30pm 15.3 - - - - S 28 33 15 18 - - -
21/04:00pm 15.3 - - - - S 33 41 18 22 - - -
21/03:30pm 15.3 - - - - S 32 39 17 21 - - -
21/03:00pm 15.4 - - - - S 32 44 17 24 - - -
21/02:30pm 15.1 - - - - S 30 39 16 21 - - -
21/02:00pm 15.0 - - - - S 32 39 17 21 - - -
21/01:30pm 15.0 - - - - S 32 39 17 21 - - -
21/01:00pm 14.6 - - - - S 26 33 14 18 - - -
21/12:30pm 14.9 - - - - S 28 35 15 19 - - -
21/12:00pm 14.8 - - - - S 24 32 13 17 - - -
21/11:30am 14.3 - - - - SSW 26 32 14 17 - - -
21/11:00am 14.0 - - - - SSW 28 32 15 17 - - -
21/10:30am 13.2 - - - - SW 19 22 10 12 - - -
21/10:00am 12.7 - - - - SW 17 22 9 12 - - -
21/09:30am 12.4 - - - - WSW 15 20 8 11 - - -
21/09:00am 11.7 - - - - WSW 20 26 11 14 - - -
21/08:30am 11.1 - - - - W 20 24 11 13 - - -
21/08:00am 10.9 - - - - W 22 28 12 15 - - -
21/07:30am 10.5 - - - - W 19 26 10 14 - - -
21/07:00am 10.6 - - - - WSW 20 26 11 14 - - -
21/06:30am 10.7 - - - - W 15 20 8 11 - - -
21/06:00am 10.9 - - - - WSW 19 26 10 14 - - -
21/05:30am 11.0 - - - - W 13 19 7 10 - - -
21/05:00am 11.0 - - - - W 22 28 12 15 - - -
21/04:30am 11.3 - - - - W 13 20 7 11 - - -
21/04:00am 11.4 - - - - WSW 17 20 9 11 - - -
21/03:30am 11.7 - - - - WSW 17 20 9 11 - - -
21/03:00am 11.5 - - - - WSW 13 20 7 11 - - -
21/02:30am 11.1 - - - - WSW 19 24 10 13 - - -
21/02:00am 11.3 - - - - W 15 20 8 11 - - -
21/01:30am 11.8 - - - - SW 9 15 5 8 - - -
21/01:00am 12.3 - - - - W 9 13 5 7 - - -
21/12:30am 12.7 - - - - SSW 17 20 9 11 - - -
21/12:00am 13.0 - - - - SW 20 22 11 12 - - -
 
Date/Time
EST
Tmp

°C
App
Tmp
°C
Dew
Point
°C
Rel
Hum
%
Delta-T

°C
Wind Press
QNH
hPa
Press
MSL
hPa
Rain
since
9 am
mm
Dir
 
Spd
km/h
Gust
km/h
Spd
kts
Gust
kts
20/11:30pm 13.8 - - - - SW 24 28 13 15 - - -
20/11:00pm 13.2 - - - - WSW 20 24 11 13 - - -
20/10:30pm 14.2 - - - - SW 22 26 12 14 - - -
20/10:00pm 14.5 - - - - SW 19 22 10 12 - - -
20/09:30pm 14.5 - - - - SSE 22 33 12 18 - - -
20/09:00pm 14.9 - - - - S 20 30 11 16 - - -
20/08:30pm 14.9 - - - - S 22 30 12 16 - - -
20/08:00pm 14.7 - - - - S 24 32 13 17 - - -
20/07:30pm 14.8 - - - - SSW 24 30 13 16 - - -
20/07:00pm 14.8 - - - - S 24 28 13 15 - - -
20/06:30pm 14.9 - - - - S 28 35 15 19 - - -
20/06:00pm 14.8 - - - - S 26 32 14 17 - - -
20/05:30pm 14.8 - - - - S 26 32 14 17 - - -
20/05:00pm 14.9 - - - - S 30 37 16 20 - - -
20/04:30pm 14.8 - - - - S 32 35 17 19 - - -
20/04:00pm 14.8 - - - - S 32 37 17 20 - - -
20/03:30pm 14.8 - - - - S 33 41 18 22 - - -
20/03:00pm 14.6 - - - - SSW 33 46 18 25 - - -
20/02:30pm 14.3 - - - - S 35 44 19 24 - - -
20/02:00pm 14.4 - - - - SSW 39 46 21 25 - - -
20/01:30pm 14.2 - - - - SSW 35 46 19 25 - - -
20/01:00pm 13.5 - - - - S 35 48 19 26 - - -
20/12:30pm 13.1 - - - - SSW 37 50 20 27 - - -
20/12:00pm 13.8 - - - - SSW 39 46 21 25 - - -
20/11:30am 12.8 - - - - SW 35 43 19 23 - - -
20/11:00am 13.1 - - - - SSW 37 44 20 24 - - -
20/10:30am 13.2 - - - - SSW 43 54 23 29 - - -
20/10:00am 13.3 - - - - SW 35 43 19 23 - - -
20/09:30am 12.8 - - - - SW 26 33 14 18 - - -
20/09:00am 12.3 - - - - WSW 28 35 15 19 - - -
20/08:30am 12.0 - - - - W 28 35 15 19 - - -
20/08:00am 11.5 - - - - W 28 39 15 21 - - -
20/07:30am 11.2 - - - - W 26 35 14 19 - - -
20/07:00am 11.1 - - - - WSW 24 32 13 17 - - -
20/06:30am 11.5 - - - - W 26 35 14 19 - - -
20/06:00am 11.3 - - - - W 30 37 16 20 - - -
20/05:30am 11.1 - - - - W 28 37 15 20 - - -
20/05:00am 11.3 - - - - W 28 35 15 19 - - -
20/04:30am 11.2 - - - - W 28 37 15 20 - - -
20/04:00am 11.2 - - - - W 30 39 16 21 - - -
20/03:30am 11.4 - - - - W 28 35 15 19 - - -
20/03:00am 11.3 - - - - WSW 28 37 15 20 - - -
20/02:30am 11.3 - - - - W 26 35 14 19 - - -
20/02:00am 11.7 - - - - W 24 28 13 15 - - -
20/01:30am 13.3 - - - - SW 33 44 18 24 - - -
20/01:00am 13.2 - - - - SW 33 43 18 23 - - -
20/12:30am 13.5 - - - - SW 37 46 20 25 - - -
20/12:00am 13.7 - - - - SW 35 46 19 25 - - -
 
Date/Time
EST
Tmp

°C
App
Tmp
°C
Dew
Point
°C
Rel
Hum
%
Delta-T

°C
Wind Press
QNH
hPa
Press
MSL
hPa
Rain
since
9 am
mm
Dir
 
Spd
km/h
Gust
km/h
Spd
kts
Gust
kts
19/11:30pm 14.1 - - - - SW 37 46 20 25 - - -
19/11:00pm 14.0 - - - - SW 41 52 22 28 - - -
19/10:30pm 14.1 - - - - SW 37 46 20 25 - - -
19/10:00pm 14.0 - - - - SSW 39 48 21 26 - - -
19/09:47pm 13.8 - - - - SSW 39 57 21 31 - - -
19/09:30pm 14.4 - - - - SSW 43 57 23 31 - - -
19/09:00pm 14.5 - - - - SSW 39 46 21 25 - - -
19/08:33pm 14.7 - - - - S 39 57 21 31 - - -
19/08:30pm 14.9 - - - - SSW 37 50 20 27 - - -
19/08:12pm 14.9 - - - - SSW 41 59 22 32 - - -
19/08:00pm 14.8 - - - - SSW 44 59 24 32 - - -
19/07:30pm 14.2 - - - - SSW 44 61 24 33 - - -
19/07:29pm 14.1 - - - - SSW 44 63 24 34 - - -
19/07:00pm 14.9 - - - - SSW 43 56 23 30 - - -
19/06:30pm 13.0 - - - - SSW 43 57 23 31 - - -
19/06:16pm 13.8 - - - - SSW 41 61 22 33 - - -
19/06:00pm 13.7 - - - - SSW 44 61 24 33 - - -
19/05:30pm 13.5 - - - - SSW 44 54 24 29 - - -
19/05:00pm 13.6 - - - - SW 43 56 23 30 - - -
19/04:30pm 14.3 - - - - SW 41 54 22 29 - - -
19/04:00pm 14.4 - - - - SSW 43 56 23 30 - - -
19/03:45pm 14.1 - - - - SW 35 54 19 29 - - -
19/03:30pm 14.4 - - - - SW 41 50 22 27 - - -
19/03:03pm 15.8 - - - - SSW 41 61 22 33 - - -
19/03:00pm 15.9 - - - - SSW 41 50 22 27 - - -
19/02:35pm 15.8 - - - - SSW 37 65 20 35 - - -
19/02:30pm 15.0 - - - - SW 33 41 18 22 - - -
19/02:00pm 14.2 - - - - SW 43 57 23 31 - - -
19/01:31pm 15.5 - - - - SSW 43 61 23 33 - - -
19/01:30pm 15.7 - - - - SSW 44 61 24 33 - - -
19/01:06pm 15.9 - - - - S 44 63 24 34 - - -
19/01:00pm 16.0 - - - - SSW 41 54 22 29 - - -
19/12:30pm 15.3 - - - - SSW 39 54 21 29 - - -
19/12:00pm 13.6 - - - - SSW 50 69 27 37 - - -
19/11:52am 15.3 - - - - SSW 46 69 25 37 - - -
19/11:30am 15.9 - - - - SSW 48 59 26 32 - - -
19/11:07am 16.0 - - - - SSW 43 61 23 33 - - -
19/11:00am 16.3 - - - - SSW 41 54 22 29 - - -
19/10:48am 15.8 - - - - SSW 37 57 20 31 - - -
19/10:30am 14.8 - - - - SW 35 48 19 26 - - -
19/10:00am 14.9 - - - - SSW 37 54 20 29 - - -
19/09:30am 14.7 - - - - SSW 43 56 23 30 - - -
19/09:00am 16.0 - - - - S 46 67 25 36 - - -
19/08:51am 15.9 - - - - S 37 56 20 30 - - -
19/08:30am 14.6 - - - - S 44 56 24 30 - - -
19/08:13am 15.6 - - - - SSW 30 61 16 33 - - -
19/08:00am 15.3 - - - - S 32 46 17 25 - - -
19/07:37am 14.7 - - - - S 44 65 24 35 - - -
19/07:30am 15.2 - - - - S 41 56 22 30 - - -
19/07:13am 15.9 - - - - S 41 59 22 32 - - -
19/07:00am 15.0 - - - - S 41 50 22 27 - - -
19/06:30am 15.0 - - - - S 43 63 23 34 - - -
19/06:00am 15.0 - - - - S 39 57 21 31 - - -
19/05:42am 14.1 - - - - S 39 44 21 24 - - -
19/05:33am 13.8 - - - - S 59 78 32 42 - - -
19/05:30am 13.2 - - - - S 63 78 34 42 - - -
19/05:28am 13.6 - - - - S 65 74 35 40 - - -
19/05:00am 14.6 - - - - SSW 39 61 21 33 - - -
19/04:30am 15.2 - - - - SSW 46 65 25 35 - - -
19/04:26am 15.2 - - - - SSW 44 65 24 35 - - -
19/04:00am 14.7 - - - - SSW 39 50 21 27 - - -
19/03:48am 14.9 - - - - SSW 41 59 22 32 - - -
19/03:30am 14.7 - - - - SSW 37 54 20 29 - - -
19/03:00am 13.9 - - - - SSW 39 50 21 27 - - -
19/02:42am 15.1 - - - - S 39 63 21 34 - - -
19/02:30am 15.4 - - - - SSW 35 48 19 26 - - -
19/02:00am 15.6 - - - - S 33 43 18 23 - - -

Latest Capital City Observations: Canberra | Sydney | Melbourne | Brisbane | Adelaide | Perth | Hobart | Darwin

Other Formats:

Comma delimited format used in spreadsheet applications
http://www.bom.gov.au/fwo/IDN60901/IDN60901.95766.axf

JavaScript Object Notation format (JSON) in row-major order
http://www.bom.gov.au/fwo/IDN60901/IDN60901.95766.json